createdAt,value
2017-06-25T00:00:03.686Z,76.5
2017-06-25T00:00:07.995Z,76.5
2017-06-25T00:00:12.456Z,76.5
2017-06-25T00:00:16.878Z,76.5
2017-06-25T00:00:21.303Z,76.5
2017-06-25T00:00:25.494Z,76.11
2017-06-25T00:00:29.809Z,76.31
2017-06-25T00:00:34.121Z,76.01
2017-06-25T00:00:38.542Z,76.01
2017-06-25T00:00:42.963Z,76.01
2017-06-25T00:00:47.381Z,76.31
2017-06-25T00:00:51.710Z,76.4
2017-06-25T00:00:56.017Z,76.01
2017-06-25T00:01:00.199Z,75.88
2017-06-25T00:01:04.620Z,76.31
2017-06-25T00:01:09.048Z,75.92
2017-06-25T00:01:13.357Z,76.5
2017-06-25T00:01:17.659Z,75.92
2017-06-25T00:01:21.849Z,76.11
2017-06-25T00:01:26.039Z,76.31
2017-06-25T00:01:30.462Z,75.92
2017-06-25T00:01:34.668Z,76.01
2017-06-25T00:01:39.088Z,76.31
2017-06-25T00:01:43.394Z,76.21
2017-06-25T00:01:47.814Z,76.01
2017-06-25T00:01:52.238Z,76.4
2017-06-25T00:01:56.572Z,76.46
2017-06-25T00:02:00.994Z,76.01
2017-06-25T00:02:05.671Z,75.98
2017-06-25T00:02:09.972Z,76.31
2017-06-25T00:02:14.394Z,76.5
2017-06-25T00:02:18.823Z,75.92
2017-06-25T00:02:23.128Z,76.21
2017-06-25T00:02:27.313Z,76.11
2017-06-25T00:02:31.619Z,76.21
2017-06-25T00:02:35.928Z,76.17
2017-06-25T00:02:40.356Z,76.11
2017-06-25T00:02:44.781Z,76.21
2017-06-25T00:02:49.090Z,76.5
2017-06-25T00:02:53.396Z,76.17
2017-06-25T00:02:57.822Z,76.31
2017-06-25T00:03:02.443Z,76.31
2017-06-25T00:03:06.868Z,76.21
2017-06-25T00:03:11.290Z,76.11
2017-06-25T00:03:15.718Z,75.82
2017-06-25T00:03:20.033Z,75.92
2017-06-25T00:03:24.341Z,75.92
2017-06-25T00:03:28.294Z,75.92
2017-06-25T00:03:32.361Z,76.11
2017-06-25T00:03:36.663Z,76.11
2017-06-25T00:03:40.856Z,75.92
2017-06-25T00:03:45.277Z,76.21
2017-06-25T00:03:49.696Z,75.92
2017-06-25T00:03:53.998Z,75.82
2017-06-25T00:03:58.183Z,75.88
2017-06-25T00:04:02.763Z,76.01
2017-06-25T00:04:06.977Z,76.01
2017-06-25T00:04:11.278Z,75.82
2017-06-25T00:04:15.698Z,75.92
2017-06-25T00:04:20.004Z,75.88
2017-06-25T00:04:24.306Z,76.11
2017-06-25T00:04:28.382Z,76.11
2017-06-25T00:04:32.566Z,75.73
2017-06-25T00:04:36.991Z,76.11
2017-06-25T00:04:41.413Z,76.26
2017-06-25T00:04:45.840Z,76.5
2017-06-25T00:04:50.261Z,76.01
2017-06-25T00:04:54.683Z,76.31
2017-06-25T00:04:59.154Z,76.11
2017-06-25T00:05:03.453Z,76.07
2017-06-25T00:05:07.780Z,76.31
2017-06-25T00:05:12.204Z,76.31
2017-06-25T00:05:16.510Z,76.5
2017-06-25T00:05:20.816Z,76.11
2017-06-25T00:05:25.123Z,76.17
2017-06-25T00:05:29.569Z,76.11
2017-06-25T00:05:33.757Z,76.17
2017-06-25T00:05:38.062Z,76.17
2017-06-25T00:05:42.367Z,75.98
2017-06-25T00:05:46.796Z,76.21
2017-06-25T00:05:51.101Z,76.17
2017-06-25T00:05:55.405Z,76.17
2017-06-25T00:05:59.824Z,76.01
2017-06-25T00:06:04.141Z,76.11
2017-06-25T00:06:08.330Z,75.88
2017-06-25T00:06:12.528Z,76.31
2017-06-25T00:06:16.950Z,76.01
2017-06-25T00:06:21.258Z,76.01
2017-06-25T00:06:25.445Z,76.31
2017-06-25T00:06:29.757Z,76.31
2017-06-25T00:06:33.956Z,75.82
2017-06-25T00:06:38.381Z,76.4
2017-06-25T00:06:42.692Z,75.73
2017-06-25T00:06:46.996Z,75.24
2017-06-25T00:06:51.419Z,76.21
2017-06-25T00:06:55.629Z,76.21
2017-06-25T00:06:59.817Z,76.31
2017-06-25T00:07:04.137Z,76.11
2017-06-25T00:07:08.323Z,76.11
2017-06-25T00:07:12.745Z,75.44
2017-06-25T00:07:17.051Z,76.01
2017-06-25T00:07:21.387Z,76.31
2017-06-25T00:07:25.686Z,75.34
2017-06-25T00:07:29.870Z,76.31
2017-06-25T00:07:34.050Z,75.82
2017-06-25T00:07:38.357Z,75.44
2017-06-25T00:07:42.780Z,75.34
2017-06-25T00:07:47.202Z,76.11
2017-06-25T00:07:51.624Z,76.36
2017-06-25T00:07:55.809Z,76.21
2017-06-25T00:07:59.999Z,75.54
2017-06-25T00:08:04.306Z,76.11
2017-06-25T00:08:08.730Z,75.63
2017-06-25T00:08:13.030Z,76.31
2017-06-25T00:08:17.332Z,75.44
2017-06-25T00:08:21.755Z,75.44
2017-06-25T00:08:26.058Z,76.21
2017-06-25T00:08:30.359Z,75.54
2017-06-25T00:08:34.545Z,76.21
2017-06-25T00:08:38.967Z,75.92
2017-06-25T00:08:43.391Z,75.63
2017-06-25T00:08:47.693Z,76.21
2017-06-25T00:08:52.117Z,76.21
2017-06-25T00:08:56.306Z,76.31
2017-06-25T00:09:00.739Z,76.21
2017-06-25T00:09:05.163Z,76.4
2017-06-25T00:09:09.612Z,75.63
2017-06-25T00:09:14.034Z,76.01
2017-06-25T00:09:18.456Z,76.31
2017-06-25T00:09:22.638Z,75.34
2017-06-25T00:09:26.944Z,76.11
2017-06-25T00:09:31.132Z,76.31
2017-06-25T00:09:35.553Z,76.31
2017-06-25T00:09:39.973Z,76.31
2017-06-25T00:09:44.277Z,76.31
2017-06-25T00:09:48.701Z,76.11
2017-06-25T00:09:53.127Z,75.34
2017-06-25T00:09:57.543Z,76.11
2017-06-25T00:10:02.197Z,75.54
2017-06-25T00:10:06.505Z,75.34
2017-06-25T00:10:10.934Z,76.11
2017-06-25T00:10:15.243Z,76.11
2017-06-25T00:10:19.670Z,76.21
2017-06-25T00:10:23.736Z,76.31
2017-06-25T00:10:28.047Z,76.31
2017-06-25T00:10:32.234Z,76.21
2017-06-25T00:10:36.542Z,76.21
2017-06-25T00:10:40.841Z,76.31
2017-06-25T00:10:45.145Z,76.31
2017-06-25T00:10:49.565Z,76.11
2017-06-25T00:10:53.995Z,76.11
2017-06-25T00:10:58.422Z,76.11
2017-06-25T00:11:02.843Z,76.11
2017-06-25T00:11:07.146Z,76.21
2017-06-25T00:11:11.563Z,76.31
2017-06-25T00:11:15.998Z,76.11
2017-06-25T00:11:20.422Z,76.31
2017-06-25T00:11:24.488Z,75.34
2017-06-25T00:11:28.792Z,76.21
2017-06-25T00:11:32.863Z,76.01
2017-06-25T00:11:37.170Z,76.4
2017-06-25T00:11:41.356Z,75.34
2017-06-25T00:11:45.778Z,76.31
2017-06-25T00:11:50.199Z,76.31
2017-06-25T00:11:54.269Z,76.21
2017-06-25T00:11:58.696Z,75.24
2017-06-25T00:12:02.886Z,76.11
2017-06-25T00:12:07.193Z,76.21
2017-06-25T00:12:11.612Z,76.21
2017-06-25T00:12:16.035Z,76.11
2017-06-25T00:12:20.459Z,76.11
2017-06-25T00:12:24.648Z,76.11
2017-06-25T00:12:28.952Z,76.11
2017-06-25T00:12:33.019Z,76.31
2017-06-25T00:12:37.436Z,76.11
2017-06-25T00:12:41.741Z,75.34
2017-06-25T00:12:46.186Z,76.01
2017-06-25T00:12:50.604Z,76.11
2017-06-25T00:12:54.909Z,75.15
2017-06-25T00:12:59.208Z,76.31
2017-06-25T00:13:03.631Z,76.31
2017-06-25T00:13:07.977Z,76.21
2017-06-25T00:13:12.395Z,76.31
2017-06-25T00:13:16.812Z,76.21
2017-06-25T00:13:21.002Z,76.11
2017-06-25T00:13:25.309Z,76.01
2017-06-25T00:13:29.767Z,76.11
2017-06-25T00:13:34.070Z,75.44
2017-06-25T00:13:38.492Z,76.11
2017-06-25T00:13:42.674Z,75.92
2017-06-25T00:13:46.981Z,76.01
2017-06-25T00:13:51.432Z,75.59
2017-06-25T00:13:55.617Z,75.73
2017-06-25T00:13:59.802Z,76.01
2017-06-25T00:14:04.524Z,76.01
2017-06-25T00:14:08.947Z,75.92
2017-06-25T00:14:13.393Z,75.92
2017-06-25T00:14:17.696Z,75.73
2017-06-25T00:14:21.880Z,76.01
2017-06-25T00:14:26.065Z,75.44
2017-06-25T00:14:30.489Z,75.92
2017-06-25T00:14:34.681Z,75.73
2017-06-25T00:14:39.105Z,76.01
2017-06-25T00:14:43.291Z,76.11
2017-06-25T00:14:47.594Z,76.01
2017-06-25T00:14:52.015Z,76.01
2017-06-25T00:14:56.324Z,76.01
2017-06-25T00:15:00.769Z,76.01
2017-06-25T00:15:05.076Z,76.21
2017-06-25T00:15:09.500Z,76.01
2017-06-25T00:15:13.929Z,76.11
2017-06-25T00:15:18.351Z,76.11
2017-06-25T00:15:22.774Z,75.34
2017-06-25T00:15:26.958Z,76.01
2017-06-25T00:15:31.263Z,76.11
2017-06-25T00:15:35.567Z,76.11
2017-06-25T00:15:39.879Z,76.11
2017-06-25T00:15:44.068Z,75.73
2017-06-25T00:15:48.501Z,75.92
2017-06-25T00:15:52.921Z,76.01
2017-06-25T00:15:57.342Z,76.01
2017-06-25T00:16:01.836Z,76.11
2017-06-25T00:16:06.306Z,76.11
2017-06-25T00:16:10.729Z,75.44
2017-06-25T00:16:15.033Z,76.01
2017-06-25T00:16:19.341Z,76.11
2017-06-25T00:16:23.651Z,76.11
2017-06-25T00:16:27.970Z,75.24
2017-06-25T00:16:32.158Z,76.01
2017-06-25T00:16:36.584Z,76.01
2017-06-25T00:16:40.896Z,76.31
2017-06-25T00:16:45.204Z,75.34
2017-06-25T00:16:49.626Z,76.07
2017-06-25T00:16:54.046Z,76.11
2017-06-25T00:16:58.477Z,76.01
2017-06-25T00:17:02.907Z,76.11
2017-06-25T00:17:07.101Z,75.82
2017-06-25T00:17:11.528Z,75.82
2017-06-25T00:17:15.951Z,75.82
2017-06-25T00:17:20.374Z,75.98
2017-06-25T00:17:24.448Z,75.69
2017-06-25T00:17:28.875Z,75.73
2017-06-25T00:17:32.942Z,75.69
2017-06-25T00:17:37.243Z,75.92
2017-06-25T00:17:41.670Z,75.82
2017-06-25T00:17:45.982Z,75.73
2017-06-25T00:17:50.409Z,75.44
2017-06-25T00:17:54.828Z,76.07
2017-06-25T00:17:59.245Z,76.11
2017-06-25T00:18:03.918Z,76.11
2017-06-25T00:18:08.339Z,76.07
2017-06-25T00:18:12.768Z,76.07
2017-06-25T00:18:17.067Z,75.73
2017-06-25T00:18:21.141Z,76.07
2017-06-25T00:18:25.451Z,75.11
2017-06-25T00:18:29.637Z,75.44
2017-06-25T00:18:33.849Z,75.73
2017-06-25T00:18:38.270Z,76.11
2017-06-25T00:18:42.692Z,75.92
2017-06-25T00:18:47.110Z,75.73
2017-06-25T00:18:51.533Z,75.73
2017-06-25T00:18:55.954Z,75.92
2017-06-25T00:19:00.370Z,75.63
2017-06-25T00:19:04.809Z,75.92
2017-06-25T00:19:09.228Z,75.92
2017-06-25T00:19:13.422Z,76.11
2017-06-25T00:19:17.752Z,76.21
2017-06-25T00:19:22.050Z,75.34
2017-06-25T00:19:26.235Z,76.21
2017-06-25T00:19:30.544Z,75.49
2017-06-25T00:19:34.849Z,76.26
2017-06-25T00:19:39.271Z,76.59
2017-06-25T00:19:43.574Z,75.69
2017-06-25T00:19:47.990Z,75.82
2017-06-25T00:19:52.409Z,76.21
2017-06-25T00:19:56.832Z,76.59
2017-06-25T00:20:01.159Z,76.59
2017-06-25T00:20:05.745Z,76.01
2017-06-25T00:20:09.933Z,76.69
2017-06-25T00:20:14.119Z,76.21
2017-06-25T00:20:18.429Z,76.17
2017-06-25T00:20:22.869Z,76.01
2017-06-25T00:20:27.051Z,76.78
2017-06-25T00:20:31.480Z,75.92
2017-06-25T00:20:35.788Z,76.4
2017-06-25T00:20:40.093Z,75.92
2017-06-25T00:20:44.516Z,76.11
2017-06-25T00:20:48.937Z,76.01
2017-06-25T00:20:53.239Z,76.01
2017-06-25T00:20:57.657Z,76.17
2017-06-25T00:21:02.083Z,76.11
2017-06-25T00:21:06.394Z,76.11
2017-06-25T00:21:10.701Z,76.31
2017-06-25T00:21:15.125Z,76.31
2017-06-25T00:21:19.432Z,76.21
2017-06-25T00:21:23.628Z,76.11
2017-06-25T00:21:27.819Z,76.5
2017-06-25T00:21:32.005Z,75.92
2017-06-25T00:21:36.426Z,75.82
2017-06-25T00:21:40.856Z,76.21
2017-06-25T00:21:45.291Z,76.01
2017-06-25T00:21:49.716Z,76.31
2017-06-25T00:21:54.141Z,76.26
2017-06-25T00:21:58.567Z,76.11
2017-06-25T00:22:02.995Z,76.78
2017-06-25T00:22:07.188Z,76.69
2017-06-25T00:22:11.610Z,76.65
2017-06-25T00:22:16.028Z,76.78
2017-06-25T00:22:20.452Z,76.5
2017-06-25T00:22:24.765Z,76.69
2017-06-25T00:22:29.099Z,76.94
2017-06-25T00:22:33.401Z,76.46
2017-06-25T00:22:37.705Z,76.84
2017-06-25T00:22:42.126Z,76.59
2017-06-25T00:22:46.554Z,76.56
2017-06-25T00:22:50.860Z,76.59
2017-06-25T00:22:55.285Z,76.5
2017-06-25T00:22:59.707Z,76.59
2017-06-25T00:23:04.013Z,76.69
2017-06-25T00:23:08.208Z,76.59
2017-06-25T00:23:12.634Z,76.69
2017-06-25T00:23:17.064Z,76.36
2017-06-25T00:23:21.484Z,76.4
2017-06-25T00:23:25.797Z,76.69
2017-06-25T00:23:29.894Z,76.69
2017-06-25T00:23:34.081Z,76.69
2017-06-25T00:23:38.501Z,76.65
2017-06-25T00:23:42.931Z,76.59
2017-06-25T00:23:47.361Z,76.5
2017-06-25T00:23:51.662Z,76.59
2017-06-25T00:23:56.082Z,76.46
2017-06-25T00:24:00.503Z,76.59
2017-06-25T00:24:04.936Z,76.59
2017-06-25T00:24:09.245Z,76.59
2017-06-25T00:24:13.671Z,76.59
2017-06-25T00:24:18.092Z,76.46
2017-06-25T00:24:22.512Z,76.46
2017-06-25T00:24:26.582Z,76.5
2017-06-25T00:24:31.004Z,76.4
2017-06-25T00:24:35.314Z,76.59
2017-06-25T00:24:39.735Z,76.94
2017-06-25T00:24:44.154Z,76.75
2017-06-25T00:24:48.580Z,76.69
2017-06-25T00:24:53.005Z,76.65
2017-06-25T00:24:57.426Z,76.69
2017-06-25T00:25:02.046Z,76.56
2017-06-25T00:25:06.368Z,76.78
2017-06-25T00:25:10.801Z,76.65
2017-06-25T00:25:15.235Z,76.17
2017-06-25T00:25:19.655Z,76.46
2017-06-25T00:25:23.728Z,76.11
2017-06-25T00:25:28.034Z,75.98
2017-06-25T00:25:32.345Z,75.98
2017-06-25T00:25:36.654Z,76.17
2017-06-25T00:25:41.076Z,75.88
2017-06-25T00:25:45.501Z,76.07
2017-06-25T00:25:49.923Z,76.17
2017-06-25T00:25:54.232Z,75.88
2017-06-25T00:25:58.658Z,76.07
2017-06-25T00:26:03.432Z,76.17
2017-06-25T00:26:07.851Z,75.98
2017-06-25T00:26:12.275Z,76.21
2017-06-25T00:26:16.496Z,76.11
2017-06-25T00:26:20.918Z,75.59
2017-06-25T00:26:25.222Z,75.21
2017-06-25T00:26:29.403Z,76.36
2017-06-25T00:26:33.834Z,75.88
2017-06-25T00:26:38.263Z,76.11
2017-06-25T00:26:42.567Z,76.07
2017-06-25T00:26:46.986Z,75.21
2017-06-25T00:26:51.402Z,75.59
2017-06-25T00:26:55.702Z,75.79
2017-06-25T00:27:00.127Z,75.98
2017-06-25T00:27:04.813Z,75.63
2017-06-25T00:27:09.231Z,75.69
2017-06-25T00:27:13.655Z,75.49
2017-06-25T00:27:18.081Z,75.59
2017-06-25T00:27:22.503Z,75.59
2017-06-25T00:27:26.579Z,75.59
2017-06-25T00:27:30.767Z,75.69
2017-06-25T00:27:35.195Z,75.59
2017-06-25T00:27:39.615Z,75.63
2017-06-25T00:27:44.064Z,75.69
2017-06-25T00:27:48.483Z,75.79
2017-06-25T00:27:52.898Z,75.82
2017-06-25T00:27:57.196Z,75.79
2017-06-25T00:28:01.616Z,75.59
2017-06-25T00:28:06.043Z,75.11
2017-06-25T00:28:10.464Z,74.92
2017-06-25T00:28:14.768Z,75.11
2017-06-25T00:28:19.190Z,75.11
2017-06-25T00:28:23.498Z,75.21
2017-06-25T00:28:27.807Z,74.92
2017-06-25T00:28:31.878Z,75.02
2017-06-25T00:28:36.295Z,74.96
2017-06-25T00:28:40.714Z,74.96
2017-06-25T00:28:45.018Z,75.05
2017-06-25T00:28:49.469Z,75.11
2017-06-25T00:28:53.890Z,75.15
2017-06-25T00:28:58.191Z,75.34
2017-06-25T00:29:02.850Z,75.11
2017-06-25T00:29:07.276Z,75.11
2017-06-25T00:29:11.592Z,75.02
2017-06-25T00:29:16.012Z,75.02
2017-06-25T00:29:20.431Z,74.96
2017-06-25T00:29:24.740Z,74.96
2017-06-25T00:29:29.168Z,75.02
2017-06-25T00:29:33.356Z,75.11
2017-06-25T00:29:37.659Z,75.05
2017-06-25T00:29:42.079Z,74.96
2017-06-25T00:29:46.386Z,74.96
2017-06-25T00:29:50.811Z,75.31
2017-06-25T00:29:55.234Z,75.4
2017-06-25T00:29:59.653Z,75.11
2017-06-25T00:30:03.954Z,75.79
2017-06-25T00:30:08.030Z,75.82
2017-06-25T00:30:12.458Z,75.79
2017-06-25T00:30:16.789Z,75.31
2017-06-25T00:30:21.091Z,75.49
2017-06-25T00:30:25.517Z,75.05
2017-06-25T00:30:29.938Z,75.34
2017-06-25T00:30:34.266Z,75.11
2017-06-25T00:30:38.690Z,75.02
2017-06-25T00:30:43.116Z,75.15
2017-06-25T00:30:47.421Z,75.11
2017-06-25T00:30:51.849Z,74.92
2017-06-25T00:30:56.170Z,75.11
2017-06-25T00:31:00.591Z,75.15
2017-06-25T00:31:04.807Z,75.21
2017-06-25T00:31:09.227Z,75.34
2017-06-25T00:31:13.649Z,75.05
2017-06-25T00:31:17.957Z,75.11
2017-06-25T00:31:22.378Z,75.44
2017-06-25T00:31:26.682Z,75.44
2017-06-25T00:31:31.104Z,75.4
2017-06-25T00:31:35.535Z,75.15
2017-06-25T00:31:39.965Z,75.15
2017-06-25T00:31:44.384Z,75.15
2017-06-25T00:31:48.804Z,75.34
2017-06-25T00:31:53.235Z,75.15
2017-06-25T00:31:57.419Z,74.96
2017-06-25T00:32:01.493Z,75.15
2017-06-25T00:32:05.800Z,74.96
2017-06-25T00:32:10.221Z,75.15
2017-06-25T00:32:14.647Z,75.15
2017-06-25T00:32:18.947Z,75.31
2017-06-25T00:32:23.254Z,75.34
2017-06-25T00:32:27.441Z,75.31
2017-06-25T00:32:31.742Z,75.15
2017-06-25T00:32:36.163Z,75.15
2017-06-25T00:32:40.583Z,75.15
2017-06-25T00:32:44.887Z,75.02
2017-06-25T00:32:49.306Z,75.34
2017-06-25T00:32:53.493Z,75.24
2017-06-25T00:32:57.914Z,75.4
2017-06-25T00:33:02.636Z,74.92
2017-06-25T00:33:07.102Z,74.73
2017-06-25T00:33:11.410Z,74.96
2017-06-25T00:33:15.713Z,74.76
2017-06-25T00:33:19.897Z,74.86
2017-06-25T00:33:24.085Z,75.05
2017-06-25T00:33:27.926Z,74.76
2017-06-25T00:33:32.115Z,74.76
2017-06-25T00:33:36.533Z,74.86
2017-06-25T00:33:40.718Z,74.76
2017-06-25T00:33:45.025Z,74.76
2017-06-25T00:33:49.447Z,74.19
2017-06-25T00:33:53.750Z,74.38
2017-06-25T00:33:58.053Z,74.29
2017-06-25T00:34:02.353Z,74.09
2017-06-25T00:34:06.682Z,74.29
2017-06-25T00:34:11.112Z,74.15
2017-06-25T00:34:15.536Z,74.44
2017-06-25T00:34:19.962Z,74.19
2017-06-25T00:34:24.151Z,74.48
2017-06-25T00:34:28.220Z,74.44
2017-06-25T00:34:32.400Z,74.73
2017-06-25T00:34:36.820Z,74.48
2017-06-25T00:34:41.119Z,74.38
2017-06-25T00:34:45.428Z,74.19
2017-06-25T00:34:49.737Z,74.15
2017-06-25T00:34:54.155Z,74.29
2017-06-25T00:34:58.578Z,74.25
2017-06-25T00:35:03.297Z,74.38
2017-06-25T00:35:07.604Z,74.09
2017-06-25T00:35:12.055Z,74.29
2017-06-25T00:35:16.484Z,74.19
2017-06-25T00:35:20.907Z,74.67
2017-06-25T00:35:25.215Z,74.86
2017-06-25T00:35:29.412Z,74.73
2017-06-25T00:35:33.594Z,74.76
2017-06-25T00:35:38.014Z,74.96
2017-06-25T00:35:42.434Z,74.86
2017-06-25T00:35:46.751Z,75.05
2017-06-25T00:35:51.076Z,74.96
2017-06-25T00:35:55.494Z,75.05
2017-06-25T00:35:59.914Z,75.34
2017-06-25T00:36:04.335Z,75.02
2017-06-25T00:36:08.760Z,75.15
2017-06-25T00:36:13.200Z,75.44
2017-06-25T00:36:17.623Z,75.24
2017-06-25T00:36:21.927Z,75.11
2017-06-25T00:36:26.236Z,75.24
2017-06-25T00:36:30.427Z,75.02
2017-06-25T00:36:34.736Z,74.96
2017-06-25T00:36:38.922Z,75.15
2017-06-25T00:36:43.224Z,75.15
2017-06-25T00:36:47.641Z,75.31
2017-06-25T00:36:52.070Z,75.15
2017-06-25T00:36:56.497Z,74.96
2017-06-25T00:37:00.918Z,75.79
2017-06-25T00:37:05.240Z,75.82
2017-06-25T00:37:09.543Z,75.92
2017-06-25T00:37:13.973Z,75.82
2017-06-25T00:37:18.278Z,75.82
2017-06-25T00:37:22.582Z,75.82
2017-06-25T00:37:26.885Z,75.63
2017-06-25T00:37:31.195Z,75.54
2017-06-25T00:37:35.618Z,75.49
2017-06-25T00:37:39.923Z,75.73
2017-06-25T00:37:44.226Z,75.82
2017-06-25T00:37:48.645Z,75.44
2017-06-25T00:37:53.065Z,75.79
2017-06-25T00:37:57.486Z,75.82
2017-06-25T00:38:01.845Z,75.63
2017-06-25T00:38:06.149Z,75.31
2017-06-25T00:38:10.462Z,76.11
2017-06-25T00:38:14.894Z,75.79
2017-06-25T00:38:19.321Z,75.54
2017-06-25T00:38:23.386Z,75.92
2017-06-25T00:38:27.569Z,75.88
2017-06-25T00:38:31.873Z,76.01
2017-06-25T00:38:36.291Z,75.63
2017-06-25T00:38:40.598Z,75.79
2017-06-25T00:38:45.031Z,76.07
2017-06-25T00:38:49.451Z,75.69
2017-06-25T00:38:53.755Z,76.11
2017-06-25T00:38:58.061Z,75.34
2017-06-25T00:39:02.586Z,76.31
2017-06-25T00:39:06.898Z,76.07
2017-06-25T00:39:11.318Z,76.26
2017-06-25T00:39:15.739Z,76.21
2017-06-25T00:39:19.920Z,75.92
2017-06-25T00:39:24.126Z,75.98
2017-06-25T00:39:28.437Z,75.98
2017-06-25T00:39:32.624Z,75.49
2017-06-25T00:39:37.045Z,75.4
2017-06-25T00:39:41.464Z,76.11
2017-06-25T00:39:45.776Z,76.26
2017-06-25T00:39:50.200Z,76.21
2017-06-25T00:39:54.618Z,76.01
2017-06-25T00:39:59.037Z,76.01
2017-06-25T00:40:03.227Z,75.44
2017-06-25T00:40:07.837Z,75.98
2017-06-25T00:40:12.260Z,76.26
2017-06-25T00:40:16.447Z,75.92
2017-06-25T00:40:20.866Z,75.63
2017-06-25T00:40:25.171Z,76.31
2017-06-25T00:40:29.478Z,75.34
2017-06-25T00:40:33.665Z,75.21
2017-06-25T00:40:38.090Z,75.24
2017-06-25T00:40:42.512Z,76.4
2017-06-25T00:40:46.933Z,75.4
2017-06-25T00:40:51.362Z,76.17
2017-06-25T00:40:55.664Z,75.31
2017-06-25T00:41:00.086Z,75.98
2017-06-25T00:41:04.269Z,76.26
2017-06-25T00:41:08.463Z,75.4
2017-06-25T00:41:12.884Z,75.4
2017-06-25T00:41:17.188Z,75.63
2017-06-25T00:41:21.610Z,76.36
2017-06-25T00:41:25.796Z,76.17
2017-06-25T00:41:29.986Z,75.73
2017-06-25T00:41:34.057Z,75.59
2017-06-25T00:41:38.477Z,75.82
2017-06-25T00:41:42.893Z,75.73
2017-06-25T00:41:47.317Z,76.17
2017-06-25T00:41:51.745Z,76.07
2017-06-25T00:41:56.078Z,75.73
2017-06-25T00:42:00.501Z,75.69
2017-06-25T00:42:04.833Z,75.98
2017-06-25T00:42:09.256Z,75.98
2017-06-25T00:42:13.691Z,75.4
2017-06-25T00:42:17.997Z,75.98
2017-06-25T00:42:22.424Z,75.24
2017-06-25T00:42:26.729Z,75.79
2017-06-25T00:42:31.152Z,75.59
2017-06-25T00:42:35.603Z,75.4
2017-06-25T00:42:40.025Z,75.92
2017-06-25T00:42:44.327Z,75.31
2017-06-25T00:42:48.637Z,76.07
2017-06-25T00:42:52.945Z,76.07
2017-06-25T00:42:57.155Z,75.21
2017-06-25T00:43:01.585Z,75.63
2017-06-25T00:43:06.376Z,75.88
2017-06-25T00:43:10.679Z,75.88
2017-06-25T00:43:15.099Z,76.07
2017-06-25T00:43:19.434Z,75.49
2017-06-25T00:43:23.742Z,75.54
2017-06-25T00:43:27.930Z,75.79
2017-06-25T00:43:31.879Z,75.59
2017-06-25T00:43:36.187Z,75.54
2017-06-25T00:43:40.617Z,75.49
2017-06-25T00:43:44.684Z,75.73
2017-06-25T00:43:48.986Z,75.82
2017-06-25T00:43:53.405Z,75.69
2017-06-25T00:43:57.836Z,75.88
2017-06-25T00:44:02.313Z,75.69
2017-06-25T00:44:06.615Z,75.21
2017-06-25T00:44:11.035Z,75.4
2017-06-25T00:44:15.463Z,75.21
2017-06-25T00:44:19.770Z,75.11
2017-06-25T00:44:24.209Z,75.02
2017-06-25T00:44:28.628Z,75.02
2017-06-25T00:44:32.931Z,74.92
2017-06-25T00:44:37.116Z,75.11
2017-06-25T00:44:41.542Z,75.11
2017-06-25T00:44:45.966Z,75.11
2017-06-25T00:44:50.389Z,75.11
2017-06-25T00:44:54.815Z,75.15
2017-06-25T00:44:59.238Z,75.11
2017-06-25T00:45:03.552Z,75.11
2017-06-25T00:45:07.997Z,75.15
2017-06-25T00:45:12.422Z,75.82
2017-06-25T00:45:16.729Z,75.73
2017-06-25T00:45:21.147Z,75.82
2017-06-25T00:45:25.576Z,75.4
2017-06-25T00:45:30.020Z,75.92
2017-06-25T00:45:34.445Z,75.69
2017-06-25T00:45:38.871Z,75.4
2017-06-25T00:45:43.188Z,76.11
2017-06-25T00:45:47.639Z,76.31
2017-06-25T00:45:52.059Z,76.31
2017-06-25T00:45:56.481Z,76.11
2017-06-25T00:46:00.784Z,76.01
2017-06-25T00:46:05.218Z,76.4
2017-06-25T00:46:09.642Z,76.26
2017-06-25T00:46:14.064Z,75.44
2017-06-25T00:46:18.366Z,75.98
2017-06-25T00:46:22.556Z,76.11
2017-06-25T00:46:26.751Z,76.31
2017-06-25T00:46:31.196Z,75.63
2017-06-25T00:46:35.508Z,75.54
2017-06-25T00:46:39.927Z,75.59
2017-06-25T00:46:44.343Z,76.26
2017-06-25T00:46:48.770Z,75.73
2017-06-25T00:46:53.199Z,75.82
2017-06-25T00:46:57.618Z,76.11
2017-06-25T00:47:01.918Z,75.24
2017-06-25T00:47:06.278Z,76.11
2017-06-25T00:47:10.708Z,75.54
2017-06-25T00:47:15.013Z,75.54
2017-06-25T00:47:19.316Z,75.59
2017-06-25T00:47:23.616Z,76.4
2017-06-25T00:47:27.688Z,75.24
2017-06-25T00:47:31.881Z,75.44
2017-06-25T00:47:36.187Z,76.21
2017-06-25T00:47:40.606Z,75.4
2017-06-25T00:47:45.026Z,75.24
2017-06-25T00:47:49.330Z,76.01
2017-06-25T00:47:53.755Z,75.82
2017-06-25T00:47:58.061Z,75.73
2017-06-25T00:48:02.359Z,76.11
2017-06-25T00:48:06.778Z,75.73
2017-06-25T00:48:11.198Z,76.01
2017-06-25T00:48:15.502Z,76.07
2017-06-25T00:48:19.807Z,76.11
2017-06-25T00:48:24.229Z,76.31
2017-06-25T00:48:28.529Z,76.31
2017-06-25T00:48:32.600Z,76.21
2017-06-25T00:48:36.923Z,76.31
2017-06-25T00:48:41.223Z,75.4
2017-06-25T00:48:45.643Z,76.11
2017-06-25T00:48:50.064Z,75.88
2017-06-25T00:48:54.256Z,75.98
2017-06-25T00:48:58.678Z,75.49
2017-06-25T00:49:03.094Z,75.88
2017-06-25T00:49:07.511Z,75.59
2017-06-25T00:49:11.936Z,75.79
2017-06-25T00:49:16.356Z,75.88
2017-06-25T00:49:20.779Z,75.49
2017-06-25T00:49:24.728Z,75.49
2017-06-25T00:49:29.151Z,75.79
2017-06-25T00:49:33.452Z,75.88
2017-06-25T00:49:37.875Z,75.4
2017-06-25T00:49:42.210Z,75.21
2017-06-25T00:49:46.627Z,75.02
2017-06-25T00:49:51.044Z,75.11
2017-06-25T00:49:55.464Z,75.02
2017-06-25T00:49:59.649Z,75.15
2017-06-25T00:50:04.039Z,75.4
2017-06-25T00:50:08.244Z,75.44
2017-06-25T00:50:12.665Z,75.4
2017-06-25T00:50:17.088Z,75.02
2017-06-25T00:50:21.402Z,75.21
2017-06-25T00:50:25.708Z,75.11
2017-06-25T00:50:29.894Z,75.15
2017-06-25T00:50:34.080Z,75.34
2017-06-25T00:50:38.389Z,75.11
2017-06-25T00:50:42.810Z,75.31
2017-06-25T00:50:47.242Z,75.05
2017-06-25T00:50:51.660Z,75.4
2017-06-25T00:50:56.079Z,75.24
2017-06-25T00:51:00.400Z,75.31
2017-06-25T00:51:04.841Z,75.05
2017-06-25T00:51:09.148Z,75.24
2017-06-25T00:51:13.569Z,75.15
2017-06-25T00:51:17.883Z,75.11
2017-06-25T00:51:22.193Z,75.05
2017-06-25T00:51:26.266Z,75.21
2017-06-25T00:51:30.457Z,75.15
2017-06-25T00:51:34.875Z,76.01
2017-06-25T00:51:39.295Z,75.79
2017-06-25T00:51:43.714Z,75.79
2017-06-25T00:51:48.139Z,75.79
2017-06-25T00:51:52.587Z,75.54
2017-06-25T00:51:57.010Z,75.73
2017-06-25T00:52:01.319Z,75.79
2017-06-25T00:52:05.773Z,75.63
2017-06-25T00:52:10.197Z,75.63
2017-06-25T00:52:14.620Z,75.69
2017-06-25T00:52:19.038Z,75.59
2017-06-25T00:52:23.465Z,75.63
2017-06-25T00:52:27.652Z,75.69
2017-06-25T00:52:31.969Z,75.82
2017-06-25T00:52:36.276Z,75.82
2017-06-25T00:52:40.693Z,75.79
2017-06-25T00:52:45.109Z,75.69
2017-06-25T00:52:49.527Z,75.73
2017-06-25T00:52:53.833Z,75.69
2017-06-25T00:52:58.285Z,75.82
2017-06-25T00:53:02.707Z,75.63
2017-06-25T00:53:07.138Z,75.63
2017-06-25T00:53:11.558Z,75.54
2017-06-25T00:53:15.864Z,75.63
2017-06-25T00:53:20.284Z,75.69
2017-06-25T00:53:24.602Z,75.79
2017-06-25T00:53:28.798Z,75.92
2017-06-25T00:53:32.994Z,75.79
2017-06-25T00:53:37.412Z,75.44
2017-06-25T00:53:41.745Z,74.86
2017-06-25T00:53:46.162Z,74.86
2017-06-25T00:53:50.578Z,75.02
2017-06-25T00:53:55.000Z,75.11
2017-06-25T00:53:59.305Z,75.11
2017-06-25T00:54:03.731Z,75.15
2017-06-25T00:54:08.038Z,74.96
2017-06-25T00:54:12.335Z,74.96
2017-06-25T00:54:16.755Z,75.11
2017-06-25T00:54:21.172Z,74.96
2017-06-25T00:54:25.482Z,75.11
2017-06-25T00:54:29.559Z,75.31
2017-06-25T00:54:33.741Z,75.02
2017-06-25T00:54:38.161Z,75.21
2017-06-25T00:54:42.468Z,75.24
2017-06-25T00:54:46.923Z,75.44
2017-06-25T00:54:51.346Z,75.05
2017-06-25T00:54:55.295Z,75.05
2017-06-25T00:54:59.597Z,75.05
2017-06-25T00:55:04.044Z,75.24
2017-06-25T00:55:08.463Z,75.15
2017-06-25T00:55:12.771Z,75.15
2017-06-25T00:55:17.191Z,74.96
2017-06-25T00:55:21.619Z,74.67
2017-06-25T00:55:25.806Z,74.96
2017-06-25T00:55:30.224Z,74.82
2017-06-25T00:55:34.408Z,74.73
2017-06-25T00:55:38.710Z,74.86
2017-06-25T00:55:43.013Z,74.92
2017-06-25T00:55:47.437Z,74.86
2017-06-25T00:55:51.860Z,74.86
2017-06-25T00:55:56.041Z,74.76
2017-06-25T00:56:00.462Z,74.76
2017-06-25T00:56:04.886Z,74.96
2017-06-25T00:56:09.312Z,74.96